Terminal Aerodrome Forecast
Issued by NWS Northern Indiana

Home | Current Version | Previous Version | Graphics & Text | Print | Product List | Glossary On
Versions: 1 2 3 4 5 6 7 8 9 10 11 12 13 14 15 16
063
FTUS43 KIWX 291012 AAA
TAFFWA
TAF AMD
KFWA 291012Z 2910/3006 08003KT 6SM BR FEW040 FEW250
      TEMPO 2911/2912 3SM BR
     FM291300 07006KT P6SM FEW040 SCT250=

USA.gov is the U.S. government's official web portal to all federal, state and local government web resources and services.